Time;durP1;ratioP1;P1;durP2;ratioP2;P2;SDS_P1;SDS_P2;PMS_P1;PMS_P2;Temp;Humidity;BMP_temperature;BMP_pressure;BME280_temperature;BME280_humidity;BME280_pressure;Samples;Min_cycle;Max_cycle;Signal;HPM_P1;HPM_P2
2022/09/20 20:24:06;;;;;;;;;9.33;7.00;;;;;15.36;57.19;102052.19;4989559;27;45740;-64
2022/09/20 20:26:32;;;;;;;;;9.00;9.00;;;;;15.51;57.96;102054.00;4990892;27;45824;-66
2022/09/20 20:28:57;;;;;;;;;13.33;12.33;;;;;15.67;57.27;102066.34;4986523;27;45411;-66
2022/09/20 20:31:23;;;;;;;;;12.33;11.33;;;;;15.69;57.06;102047.88;4987536;27;45558;-65
2022/09/20 20:33:48;;;;;;;;;11.00;10.00;;;;;15.97;56.40;102069.97;4987092;27;45942;-66
2022/09/20 20:36:16;;;;;;;;;10.33;10.33;;;;;16.08;56.13;102067.31;4990218;27;45479;-69
2022/09/20 20:38:48;;;;;;;;;12.33;11.33;;;;;16.08;55.71;102052.34;5030096;27;45513;-69
2022/09/20 20:41:17;;;;;;;;;13.00;9.33;;;;;16.26;55.43;102061.16;5061165;27;45681;-70
2022/09/20 20:43:47;;;;;;;;;10.33;9.00;;;;;16.33;55.01;102052.34;5012499;27;46025;-71
2022/09/20 20:46:17;;;;;;;;;12.67;9.67;;;;;16.45;54.42;102057.63;5003633;27;45941;-70
2022/09/20 20:48:44;;;;;;;;;12.33;11.00;;;;;16.58;53.98;102066.41;5022340;27;45577;-65
2022/09/20 20:51:19;;;;;;;;;11.00;8.67;;;;;16.64;54.11;102061.13;5018617;27;45647;-68
2022/09/20 20:53:48;;;;;;;;;8.67;8.67;;;;;16.64;54.01;102044.38;4997951;27;46705;-68
2022/09/20 20:56:20;;;;;;;;;9.00;7.33;;;;;16.68;53.79;102048.75;5019425;27;45622;-66
2022/09/20 20:58:49;;;;;;;;;8.67;8.33;;;;;16.66;53.86;102042.59;5019688;27;45586;-71
2022/09/20 21:01:21;;;;;;;;;9.67;7.33;;;;;16.74;53.65;102054.03;5027624;27;45580;-70
2022/09/20 21:03:50;;;;;;;;;7.67;7.33;;;;;16.73;53.47;102039.06;5037346;27;45797;-66
2022/09/20 21:06:17;;;;;;;;;14.00;9.33;;;;;16.91;53.19;102056.66;5000333;27;45633;-71
2022/09/20 21:08:45;;;;;;;;;8.00;8.00;;;;;16.87;53.06;102050.50;5000814;27;45683;-69
2022/09/20 21:11:27;;;;;;;;;11.33;8.67;;;;;16.96;53.11;102062.81;5005094;27;45409;-70
2022/09/20 21:13:54;;;;;;;;;11.00;9.33;;;;;16.96;52.78;102068.09;5073730;27;45594;-67
2022/09/20 21:16:22;;;;;;;;;13.33;7.33;;;;;17.00;52.67;102069.00;5050610;27;45673;-67
2022/09/20 21:18:49;;;;;;;;;12.00;9.67;;;;;16.98;52.47;102054.88;5013967;27;45891;-67
2022/09/20 21:21:20;;;;;;;;;11.67;10.00;;;;;17.01;52.21;102070.75;5023494;27;45954;-65
2022/09/20 21:23:52;;;;;;;;;13.33;10.00;;;;;16.98;52.33;102054.88;5026575;27;45489;-66
2022/09/20 21:26:19;;;;;;;;;10.67;8.67;;;;;17.02;52.00;102068.09;5048885;27;45717;-65
2022/09/20 21:28:53;;;;;;;;;9.67;7.33;;;;;17.02;52.13;102067.22;5108608;27;45602;-64
2022/09/20 21:31:21;;;;;;;;;8.67;7.67;;;;;16.99;51.86;102065.47;5071000;27;45920;-66
2022/09/20 21:33:47;;;;;;;;;7.33;6.00;;;;;17.00;51.89;102067.22;5078359;27;46024;-65
2022/09/20 21:36:29;;;;;;;;;9.00;8.67;;;;;16.88;52.05;102061.97;5091043;27;45491;-67
2022/09/20 21:38:55;;;;;;;;;11.33;9.00;;;;;16.83;52.08;102063.75;5087549;27;45639;-64
2022/09/20 21:41:33;;;;;;;;;9.33;7.00;;;;;16.92;51.73;102069.03;5058061;27;45851;-67
2022/09/20 21:44:01;;;;;;;;;11.67;10.00;;;;;16.91;51.75;102073.41;5031867;27;45577;-66
2022/09/20 21:46:31;;;;;;;;;9.67;9.67;;;;;16.88;51.81;102061.97;5002328;27;45488;-66
2022/09/20 21:49:00;;;;;;;;;7.00;7.00;;;;;16.96;51.04;102076.03;4999536;27;45593;-66
2022/09/20 21:51:29;;;;;;;;;9.67;8.00;;;;;16.87;51.76;102066.38;4925432;27;46497;-66
2022/09/20 21:54:00;;;;;;;;;7.33;7.33;;;;;16.75;51.51;102061.06;4903105;27;46786;-65
2022/09/20 21:56:30;;;;;;;;;8.00;8.00;;;;;16.82;51.09;102080.50;4893467;27;46111;-64
2022/09/20 21:58:57;;;;;;;;;9.67;9.67;;;;;16.74;51.57;102072.56;4995212;27;45982;-65
2022/09/20 22:01:26;;;;;;;;;11.67;8.33;;;;;16.85;51.39;102084.03;5035275;27;45997;-64
2022/09/20 22:03:59;;;;;;;;;9.00;9.00;;;;;16.80;51.29;102062.00;5005336;27;45485;-65
2022/09/20 22:06:38;;;;;;;;;8.33;8.33;;;;;16.76;51.65;102078.72;5011534;27;45563;-67
2022/09/20 22:09:09;;;;;;;;;10.00;9.33;;;;;16.79;51.48;102078.75;5030654;27;46477;-68
2022/09/20 22:11:42;;;;;;;;;8.33;8.00;;;;;16.77;51.28;102072.53;5004236;27;45587;-65
2022/09/20 22:14:09;;;;;;;;;8.67;8.67;;;;;16.82;51.27;102075.22;5056767;27;45866;-65
2022/09/20 22:16:41;;;;;;;;;8.00;7.33;;;;;16.83;51.41;102085.81;5043133;27;45381;-64
2022/09/20 22:19:09;;;;;;;;;7.67;7.67;;;;;16.77;51.67;102076.94;4995121;27;45739;-64
2022/09/20 22:21:37;;;;;;;;;11.00;7.67;;;;;16.69;51.44;102076.97;5047163;27;45563;-67
2022/09/20 22:24:09;;;;;;;;;10.33;8.00;;;;;16.76;51.52;102084.00;5012107;27;46191;-66
2022/09/20 22:26:39;;;;;;;;;8.67;7.33;;;;;16.65;52.06;102083.16;5013497;27;45224;-64
2022/09/20 22:29:05;;;;;;;;;7.00;7.00;;;;;16.69;51.72;102085.78;5090893;27;46601;-70
2022/09/20 22:31:36;;;;;;;;;9.33;8.33;;;;;16.70;51.81;102079.63;5018503;27;45384;-70
2022/09/20 22:34:04;;;;;;;;;11.00;9.67;;;;;16.72;51.62;102079.59;5084548;27;45518;-69
2022/09/20 22:36:36;;;;;;;;;9.00;9.00;;;;;16.63;51.56;102076.97;5023480;27;45473;-68
2022/09/20 22:39:03;;;;;;;;;10.33;9.00;;;;;16.48;52.05;102068.19;5004167;27;46256;-67
2022/09/20 22:41:29;;;;;;;;;8.00;7.00;;;;;16.52;51.79;102077.88;5005554;27;45462;-65
2022/09/20 22:43:55;;;;;;;;;7.67;7.67;;;;;16.57;52.33;102082.28;5009828;27;45556;-66
2022/09/20 22:46:25;;;;;;;;;6.67;6.67;;;;;16.50;52.27;102084.06;5025377;27;45338;-67
2022/09/20 22:48:51;;;;;;;;;10.00;9.00;;;;;16.46;51.98;102074.34;5050941;27;45643;-63
2022/09/20 22:51:22;;;;;;;;;11.33;10.00;;;;;16.42;52.25;102093.75;4984616;27;46612;-65
2022/09/20 22:53:49;;;;;;;;;9.00;9.00;;;;;16.35;52.41;102084.06;5031185;27;47113;-64
2022/09/20 22:56:28;;;;;;;;;8.33;7.67;;;;;16.25;52.41;102075.25;5075356;27;45500;-66
2022/09/20 22:58:59;;;;;;;;;8.00;8.00;;;;;16.35;52.29;102086.69;5016423;27;45468;-64
2022/09/20 23:01:28;;;;;;;;;9.33;8.67;;;;;16.34;52.34;102088.47;5009542;27;45395;-65
2022/09/20 23:04:01;;;;;;;;;13.00;10.00;;;;;16.29;52.49;102092.88;5010196;27;45465;-66
2022/09/20 23:06:29;;;;;;;;;12.00;10.00;;;;;16.27;52.35;102084.94;4991081;27;46260;-63
2022/09/20 23:08:57;;;;;;;;;8.67;8.33;;;;;16.24;52.54;102077.03;4990502;27;45388;-64
2022/09/20 23:11:24;;;;;;;;;12.00;9.33;;;;;16.25;52.30;102078.81;4990625;27;45718;-64
2022/09/20 23:13:55;;;;;;;;;14.00;9.67;;;;;16.26;52.53;102084.97;4993315;27;45480;-68
2022/09/20 23:16:24;;;;;;;;;9.67;9.00;;;;;16.26;52.29;102082.31;4991357;27;45430;-67
2022/09/20 23:18:51;;;;;;;;;11.33;10.00;;;;;16.27;52.18;102081.41;5007423;27;45752;-65
2022/09/20 23:21:19;;;;;;;;;14.00;10.00;;;;;16.21;52.88;102086.72;5009179;27;45461;-63
2022/09/20 23:23:48;;;;;;;;;11.00;10.00;;;;;16.15;52.60;102086.72;4998138;27;46508;-65
2022/09/20 23:26:16;;;;;;;;;11.00;11.00;;;;;16.17;52.60;102088.47;4988150;27;45555;-65
2022/09/20 23:28:44;;;;;;;;;8.00;8.00;;;;;16.14;52.11;102088.47;4994929;27;45434;-64
2022/09/20 23:31:14;;;;;;;;;7.00;7.00;;;;;16.11;52.09;102094.66;4993778;27;45753;-68
2022/09/20 23:33:46;;;;;;;;;6.33;6.33;;;;;16.04;52.76;102092.88;4990853;27;45363;-66
2022/09/20 23:36:12;;;;;;;;;9.67;7.67;;;;;16.09;52.57;102093.75;4993936;27;45828;-67
2022/09/20 23:38:38;;;;;;;;;11.33;5.67;;;;;16.13;52.14;102085.81;4973652;27;45445;-67
2022/09/20 23:41:10;;;;;;;;;4.33;4.33;;;;;16.11;52.61;102083.16;4974108;28;45452;-69
2022/09/20 23:43:36;;;;;;;;;5.67;4.00;;;;;16.18;52.36;102086.69;4990999;27;45550;-69
2022/09/20 23:46:05;;;;;;;;;6.00;5.00;;;;;16.21;52.01;102095.53;4993540;27;45589;-68
2022/09/20 23:48:31;;;;;;;;;8.67;5.00;;;;;16.18;52.16;102081.41;4996118;27;45536;-73
2022/09/20 23:50:58;;;;;;;;;5.67;5.00;;;;;16.25;52.20;102091.09;4977584;28;45600;-69
2022/09/20 23:53:23;;;;;;;;;5.67;4.00;;;;;16.15;52.00;102061.16;4991439;27;45466;-70
2022/09/20 23:55:51;;;;;;;;;5.67;4.33;;;;;16.16;51.89;102075.25;4991049;27;45370;-68
2022/09/20 23:58:16;;;;;;;;;10.00;5.00;;;;;16.24;52.21;102089.38;4991154;27;45397;-68
